CST,Max TemperatureF,Mean TemperatureF,Min TemperatureF,Max Dew PointF,MeanDew PointF,Min DewpointF,Max Humidity, Mean Humidity, Min Humidity, Max Sea Level PressureIn, Mean Sea Level PressureIn, Min Sea Level PressureIn, Max VisibilityMiles, Mean VisibilityMiles, Min VisibilityMiles, Max Wind SpeedMPH, Mean Wind SpeedMPH, Max Gust SpeedMPH,PrecipitationIn, CloudCover, Events, WindDirDegrees
2013-2-1,53,36,18,33,23,16,88,66,32,30.31,30.17,30.01,10,10,5,17,9,24,T,3,,250
2013-2-2,55,41,27,30,24,19,92,59,25,30.33,30.26,30.21,10,10,10,24,13,32,0.00,0,,290
2013-2-3,53,36,18,25,21,16,85,60,31,30.32,30.09,29.88,10,10,10,18,9,,0.00,0,,237
2013-2-4,57,40,23,26,21,16,81,55,21,30.04,29.94,29.85,10,10,10,15,8,,0.00,0,,250
2013-2-5,57,41,25,27,23,19,75,53,27,30.11,30.01,29.93,10,10,10,14,7,,0.00,0,,225
2013-2-6,64,46,27,34,28,22,81,54,29,29.94,29.86,29.74,10,10,10,17,7,18,0.00,1,,135
2013-2-7,56,40,23,31,22,12,82,50,19,30.22,30.12,29.96,10,10,10,20,13,21,0.00,1,,332
2013-2-8,56,40,23,26,22,16,78,52,28,30.21,30.06,29.87,10,10,10,31,11,40,0.00,0,,164
2013-2-9,58,45,31,40,30,17,100,63,33,29.86,29.61,29.38,10,8,4,25,14,38,0.18,4,Rain,151
2013-2-10,39,32,25,37,25,19,97,80,57,30.12,29.55,29.28,10,7,1,37,22,51,0.11,6,Rain-Snow,301
2013-2-11,38,29,19,20,15,11,78,62,39,30.25,30.19,30.13,10,10,10,15,9,,0.00,1,,286
2013-2-12,45,31,16,18,14,12,85,59,27,30.17,30.10,30.03,10,10,10,20,9,,0.00,0,,276
2013-2-13,55,38,21,28,21,16,75,55,29,30.04,29.96,29.87,10,10,10,23,13,29,0.00,1,,283
2013-2-14,42,29,16,29,22,14,86,68,39,30.40,30.19,30.00,10,10,10,24,11,31,0.00,3,,305
2013-2-15,38,26,14,20,13,9,93,69,34,30.47,30.43,30.34,10,10,10,20,8,,0.00,3,,289
2013-2-16,60,37,14,24,20,11,88,56,25,30.39,30.12,29.98,10,10,10,28,9,33,0.00,3,,268
2013-2-17,69,46,22,27,19,13,85,46,12,29.96,29.73,29.52,10,10,10,33,9,45,0.00,0,,235
2013-2-18,46,34,22,27,19,16,74,52,31,30.22,29.92,29.58,10,10,10,32,21,41,0.00,1,,331
2013-2-19,41,27,13,17,13,4,92,63,36,30.36,30.26,30.20,10,10,10,16,8,20,0.00,0,,79
2013-2-20,23,19,14,18,14,2,93,81,46,30.20,30.03,29.92,10,3,0,20,16,26,0.17,7,Fog-Snow,101
2013-2-21,20,17,14,18,14,9,93,85,79,30.06,29.92,29.85,10,2,0,20,15,22,0.07,8,Fog-Snow,49
2013-2-22,26,13,-1,16,9,-3,92,81,69,30.16,30.11,30.06,10,9,4,13,9,,0.00,1,,279
2013-2-23,38,21,3,28,16,1,96,84,68,30.06,29.90,29.76,10,5,0,10,6,,0.00,0,Fog,220
2013-2-24,32,23,14,27,24,10,93,86,75,30.14,29.95,29.86,5,2,0,22,9,26,0.01,8,Fog-Snow,28
2013-2-25,36,27,18,28,25,17,93,84,64,30.14,30.05,29.92,10,7,2,14,7,,T,4,Snow,347
2013-2-26,35,20,5,23,14,2,95,79,61,30.07,29.98,29.91,10,10,8,13,5,,0.00,0,,288
2013-2-27,34,28,22,26,23,18,86,73,64,30.28,30.18,30.00,10,10,10,23,15,34,0.00,5,,327
2013-2-28,39,29,18,24,20,14,88,72,53,30.35,30.29,30.23,10,10,7,10,6,,0.00,1,,304